Terminal Aerodrome Forecast
Issued by NWS

Home | Current Version | Previous Version | Graphics & Text | Print | Product List | Glossary On
Versions: 1 2 3 4 5 6 7 8 9 10 11 12 13 14 15 16 17 18 19 20 21 22 23
000
FTUS43 KGRB 212339
TAFRHI
TAF
KRHI 212339Z 2200/2224 16007KT P6SM VCSH BKN035 OVC070
     FM220400 14006KT 5SM -SHRA BR VCTS OVC035CB
     FM220900 10006KT 2SM BR OVC005
     FM221500 09005KT P6SM BKN015
     FM221900 16007KT P6SM SCT015 BKN045
     FM222300 19003KT P6SM VCSH BKN035=

USA.gov is the U.S. government's official web portal to all federal, state and local government web resources and services.